Time;durP1;ratioP1;P1;durP2;ratioP2;P2;SDS_P1;SDS_P2;PMS_P1;PMS_P2;Temp;Humidity;BMP_temperature;BMP_pressure;BME280_temperature;BME280_humidity;BME280_pressure;Samples;Min_cycle;Max_cycle;Signal;HPM_P1;HPM_P2
2022/09/12 00:01:24;;;;;;;7.80;7.10;;;;;;;13.34;95.42;101175.66;7394218;19;20078;-72
2022/09/12 00:03:54;;;;;;;7.90;7.07;;;;;;;13.35;95.22;101177.34;7396093;19;20018;-72
2022/09/12 00:06:25;;;;;;;8.13;7.32;;;;;;;13.34;95.39;101170.38;7394974;19;20090;-74
2022/09/12 00:08:57;;;;;;;8.18;7.30;;;;;;;13.34;95.19;101177.41;7394801;19;20423;-72
2022/09/12 00:11:29;;;;;;;8.40;7.53;;;;;;;13.31;95.30;101180.97;7393506;19;20070;-72
2022/09/12 00:13:59;;;;;;;8.00;7.30;;;;;;;13.30;95.37;101178.41;7394305;19;20525;-72
2022/09/12 00:16:30;;;;;;;8.48;7.18;;;;;;;13.27;95.20;101178.44;7394206;19;20484;-72
2022/09/12 00:18:58;;;;;;;7.93;7.15;;;;;;;13.23;95.66;101175.06;7394090;19;20074;-72
2022/09/12 00:21:27;;;;;;;8.77;7.05;;;;;;;13.23;95.67;101177.69;7393923;19;20082;-72
2022/09/12 00:23:56;;;;;;;11.60;6.90;;;;;;;13.19;95.51;101171.63;7394321;19;20082;-72
2022/09/12 00:26:24;;;;;;;8.38;7.03;;;;;;;13.17;95.66;101178.69;7394243;19;20079;-72
2022/09/12 00:28:55;;;;;;;7.35;6.65;;;;;;;13.14;95.66;101175.28;7394145;19;20082;-72
2022/09/12 00:31:26;;;;;;;7.88;7.15;;;;;;;13.12;95.76;101180.59;7392554;19;20082;-72
2022/09/12 00:33:56;;;;;;;8.27;7.50;;;;;;;13.08;95.73;101178.94;7394555;19;20098;-72
2022/09/12 00:36:27;;;;;;;8.43;7.53;;;;;;;13.05;95.67;101179.00;7394988;19;20066;-72
2022/09/12 00:38:55;;;;;;;8.80;7.82;;;;;;;13.02;95.83;101176.47;7394395;19;20022;-72
2022/09/12 00:41:26;;;;;;;8.80;7.57;;;;;;;13.01;95.95;101182.63;7394932;19;20092;-70
2022/09/12 00:44:00;;;;;;;9.00;7.90;;;;;;;12.98;95.81;101173.03;7400826;19;20545;-70
2022/09/12 00:46:36;;;;;;;8.55;7.43;;;;;;;12.96;95.91;101181.88;7401744;19;20018;-71
2022/09/12 00:49:11;;;;;;;9.05;8.15;;;;;;;12.93;96.07;101174.91;7401875;19;20074;-70
2022/09/12 00:51:42;;;;;;;8.48;7.68;;;;;;;12.90;95.76;101174.97;7398499;19;20078;-71
2022/09/12 00:54:15;;;;;;;9.73;8.27;;;;;;;12.88;95.95;101171.53;7400693;19;20059;-71
2022/09/12 00:56:46;;;;;;;9.70;7.45;;;;;;;12.85;95.94;101176.88;7400648;19;20540;-71
2022/09/12 00:59:20;;;;;;;8.40;7.60;;;;;;;12.81;96.05;101177.84;7401257;19;20019;-71
2022/09/12 01:01:51;;;;;;;9.30;8.00;;;;;;;12.78;96.17;101178.78;7399329;19;20082;-71
2022/09/12 01:04:23;;;;;;;9.25;8.32;;;;;;;12.75;96.10;101176.25;7397868;19;20078;-71
2022/09/12 01:06:53;;;;;;;9.48;8.38;;;;;;;12.70;96.13;101172.81;7400191;19;20078;-71
2022/09/12 01:09:24;;;;;;;10.25;8.50;;;;;;;12.68;96.22;101170.25;7400073;19;20085;-71
2022/09/12 01:11:54;;;;;;;12.73;8.50;;;;;;;12.65;96.22;101170.31;7398390;19;20014;-71
2022/09/12 01:14:26;;;;;;;11.52;8.70;;;;;;;12.62;96.33;101174.78;7400957;19;20114;-69
2022/09/12 01:16:54;;;;;;;13.07;9.05;;;;;;;12.59;96.36;101164.34;7398229;19;20078;-69
2022/09/12 01:20:08;;;;;;;10.15;9.05;;;;;;;12.55;96.43;101171.44;7400194;19;20088;-69
2022/09/12 01:23:01;;;;;;;9.68;8.75;;;;;;;12.51;96.36;101167.13;7397958;19;20130;-69
2022/09/12 01:25:35;;;;;;;10.05;8.88;;;;;;;12.46;96.35;101169.88;7399625;19;20431;-69
2022/09/12 01:28:30;;;;;;;9.80;8.70;;;;;;;12.43;96.35;101169.09;7400333;19;20039;-69
2022/09/12 01:31:08;;;;;;;10.13;8.98;;;;;;;12.38;96.34;101167.44;7397792;19;20021;-70
2022/09/12 01:33:55;;;;;;;18.52;10.18;;;;;;;12.35;96.35;101162.22;7397867;19;20423;-69
2022/09/12 01:36:49;;;;;;;14.65;9.20;;;;;;;12.32;96.54;101162.31;7399670;19;20015;-69
2022/09/12 01:39:28;;;;;;;10.73;9.57;;;;;;;12.29;96.57;101161.50;7397684;19;20010;-69
2022/09/12 01:42:09;;;;;;;12.23;10.00;;;;;;;12.26;96.57;101164.19;7398662;19;20018;-69
2022/09/12 01:44:43;;;;;;;10.75;9.20;;;;;;;12.24;96.61;101163.38;7399862;19;20071;-69
2022/09/12 01:47:21;;;;;;;10.93;9.75;;;;;;;12.21;96.77;101159.03;7398875;19;20510;-69
2022/09/12 01:49:57;;;;;;;11.90;10.38;;;;;;;12.16;96.63;101155.66;7398827;19;20078;-69
2022/09/12 01:52:30;;;;;;;10.55;9.55;;;;;;;12.16;96.88;101166.19;7396554;19;20033;-69
2022/09/12 01:55:07;;;;;;;10.93;9.48;;;;;;;12.14;97.08;101153.03;7399433;19;20074;-69
2022/09/12 01:57:41;;;;;;;13.50;10.90;;;;;;;12.11;97.23;101158.38;7399238;19;20081;-69
2022/09/12 02:00:13;;;;;;;10.43;9.32;;;;;;;12.09;97.17;101161.94;7399268;19;20091;-69
2022/09/12 02:02:50;;;;;;;12.20;10.38;;;;;;;12.06;97.42;101168.13;7397147;19;20035;-69
2022/09/12 02:05:24;;;;;;;11.20;9.98;;;;;;;12.05;97.60;101163.75;7399018;19;20091;-69
2022/09/12 02:07:55;;;;;;;11.25;10.07;;;;;;;12.02;97.71;101163.84;7396132;19;20513;-69
2022/09/12 02:10:28;;;;;;;12.43;10.05;;;;;;;12.00;97.75;101161.22;7398693;19;20025;-69
2022/09/12 02:12:59;;;;;;;11.27;10.13;;;;;;;11.98;98.03;101162.16;7395885;19;20114;-68
2022/09/12 02:15:34;;;;;;;11.15;9.88;;;;;;;11.96;97.95;101156.06;7398560;19;20114;-68
2022/09/12 02:18:08;;;;;;;11.05;9.95;;;;;;;11.96;98.24;101158.72;7397889;19;20427;-69
2022/09/12 02:20:44;;;;;;;11.70;10.20;;;;;;;11.94;97.96;101160.47;7399008;19;20021;-70
2022/09/12 02:23:18;;;;;;;10.73;9.63;;;;;;;11.92;98.07;101155.22;7397609;19;20022;-71
2022/09/12 02:25:49;;;;;;;10.40;9.38;;;;;;;11.90;98.05;101157.91;7396884;19;20015;-69
2022/09/12 02:28:30;;;;;;;10.70;9.70;;;;;;;11.88;98.14;101157.06;7397515;19;20445;-69
2022/09/12 02:31:06;;;;;;;10.43;9.15;;;;;;;11.87;98.16;101165.84;7396667;19;20026;-70
2022/09/12 02:33:46;;;;;;;11.13;10.02;;;;;;;11.86;98.03;101165.88;7395598;19;20015;-68
2022/09/12 02:36:23;;;;;;;10.80;9.75;;;;;;;11.84;98.09;101157.16;7397909;19;20018;-69
2022/09/12 02:38:52;;;;;;;11.45;10.15;;;;;;;11.83;98.32;101152.81;7397467;19;20082;-69
2022/09/12 02:41:23;;;;;;;11.40;9.75;;;;;;;11.80;98.13;101153.69;7395008;19;20035;-69
2022/09/12 02:43:53;;;;;;;11.30;10.25;;;;;;;11.80;98.39;101153.69;7397242;19;20461;-69
2022/09/12 02:46:25;;;;;;;14.23;10.45;;;;;;;11.79;98.49;101157.25;7397680;19;20032;-69
2022/09/12 02:48:57;;;;;;;11.73;10.52;;;;;;;11.77;98.51;101161.66;7397091;19;20018;-69
2022/09/12 02:51:27;;;;;;;13.02;11.05;;;;;;;11.76;98.46;101159.94;7396502;19;20018;-69
2022/09/12 02:53:56;;;;;;;11.13;10.10;;;;;;;11.75;98.54;101163.44;7396932;19;20086;-69
2022/09/12 02:56:28;;;;;;;12.27;10.93;;;;;;;11.74;98.61;101156.47;7396461;19;20082;-69
2022/09/12 02:59:02;;;;;;;11.90;10.45;;;;;;;11.73;98.95;101162.63;7395423;19;20075;-69
2022/09/12 03:01:46;;;;;;;12.40;11.10;;;;;;;11.72;98.98;101160.91;7396570;19;20036;-69
2022/09/12 03:04:29;;;;;;;;;;;;;;;11.72;99.08;101155.63;7396488;19;20070;-69
2022/09/12 03:07:14;;;;;;;12.25;11.00;;;;;;;11.71;98.77;101161.78;7394870;19;19922;-69
2022/09/12 03:09:49;;;;;;;11.88;10.70;;;;;;;11.70;98.89;101167.94;7396977;19;20110;-69
2022/09/12 03:12:38;;;;;;;10.57;9.48;;;;;;;11.71;98.76;101169.66;7394783;19;20066;-70
2022/09/12 03:15:21;;;;;;;11.23;10.07;;;;;;;11.70;98.91;101166.19;7394379;19;20426;-70
2022/09/12 03:18:03;;;;;;;11.55;10.20;;;;;;;11.70;99.03;101165.31;7396425;19;20027;-70
2022/09/12 03:20:46;;;;;;;11.30;10.18;;;;;;;11.69;98.92;101163.56;7395882;19;20018;-70
2022/09/12 03:23:23;;;;;;;11.80;10.20;;;;;;;11.68;98.85;101156.59;7394551;19;20010;-70
2022/09/12 03:25:58;;;;;;;10.60;9.48;;;;;;;11.66;99.00;101153.13;7395474;19;20031;-70
2022/09/12 03:28:27;;;;;;;11.02;9.98;;;;;;;11.64;98.96;101160.16;7396145;19;20074;-69
2022/09/12 03:30:56;;;;;;;12.02;10.55;;;;;;;11.62;98.89;101154.94;7395329;19;20078;-69
2022/09/12 03:33:38;;;;;;;10.60;9.65;;;;;;;11.61;98.98;101157.63;7392292;19;20033;-69
2022/09/12 03:36:07;;;;;;;11.80;9.77;;;;;;;11.58;98.90;101159.38;7395366;19;20074;-69
2022/09/12 03:38:38;;;;;;;11.07;9.98;;;;;;;11.55;98.86;101164.72;7394515;19;20021;-68
2022/09/12 03:41:07;;;;;;;11.73;10.57;;;;;;;11.53;98.93;101161.25;7395261;19;20081;-69
2022/09/12 03:43:35;;;;;;;10.73;9.73;;;;;;;11.51;98.99;101160.44;7395029;19;20085;-69
2022/09/12 03:46:04;;;;;;;11.45;9.90;;;;;;;11.48;98.74;101163.09;7394827;19;20502;-69
2022/09/12 03:48:33;;;;;;;11.13;9.75;;;;;;;11.46;98.85;101161.38;7394655;19;20022;-69
2022/09/12 03:51:02;;;;;;;10.32;9.32;;;;;;;11.43;98.87;101159.69;7392840;19;20398;-68
2022/09/12 03:53:31;;;;;;;11.27;10.18;;;;;;;11.39;98.69;101168.53;7394975;19;20018;-69
2022/09/12 03:56:07;;;;;;;10.65;9.55;;;;;;;11.35;98.65;101169.50;7394921;19;20022;-70
2022/09/12 03:58:37;;;;;;;10.73;9.63;;;;;;;11.33;98.82;101171.28;7395126;19;20029;-69
2022/09/12 04:01:11;;;;;;;10.88;9.82;;;;;;;11.31;98.71;101170.41;7394441;19;20014;-69
2022/09/12 04:03:40;;;;;;;10.68;9.57;;;;;;;11.28;98.80;101175.75;7395265;19;20035;-69
2022/09/12 04:06:09;;;;;;;10.10;8.70;;;;;;;11.25;98.71;101174.88;7393763;19;20386;-69
2022/09/12 04:08:39;;;;;;;11.70;10.50;;;;;;;11.22;98.58;101174.97;7394086;19;20029;-69
2022/09/12 04:11:13;;;;;;;10.80;9.50;;;;;;;11.19;98.49;101172.38;7393829;19;20019;-69
2022/09/12 04:13:44;;;;;;;10.55;9.45;;;;;;;11.17;98.39;101174.16;7394647;19;20069;-69
2022/09/12 04:16:14;;;;;;;9.40;8.50;;;;;;;11.12;98.38;101170.75;7396047;19;20421;-69
2022/09/12 04:18:43;;;;;;;10.70;8.82;;;;;;;11.10;98.27;101169.06;7401244;19;20497;-70
2022/09/12 04:21:14;;;;;;;11.52;8.85;;;;;;;11.06;98.28;101170.88;7400489;19;20082;-70
2022/09/12 04:23:42;;;;;;;11.45;9.40;;;;;;;11.04;98.17;101172.63;7401471;19;20428;-69
2022/09/12 04:26:16;;;;;;;14.38;9.25;;;;;;;10.99;98.19;101171.84;7401484;19;20014;-69
2022/09/12 04:28:44;;;;;;;10.73;9.15;;;;;;;10.96;98.15;101175.41;7401647;19;20018;-70
2022/09/12 04:31:16;;;;;;;12.23;9.60;;;;;;;10.91;98.06;101170.22;7401757;19;20051;-69
2022/09/12 04:34:02;;;;;;;11.50;10.30;;;;;;;10.88;98.08;101165.03;7396608;19;20473;-68
2022/09/12 04:36:32;;;;;;;10.18;9.15;;;;;;;10.87;98.05;101167.69;7398758;19;20089;-70
2022/09/12 04:39:02;;;;;;;13.00;8.93;;;;;;;10.82;98.06;101170.38;7400789;19;20022;-70
2022/09/12 04:41:35;;;;;;;11.93;10.15;;;;;;;10.80;98.16;101173.91;7398345;19;20014;-70
2022/09/12 04:44:06;;;;;;;10.52;8.30;;;;;;;10.76;98.10;101176.56;7401431;19;20018;-70
2022/09/12 04:46:37;;;;;;;10.27;8.10;;;;;;;10.73;97.79;101174.00;7401250;19;20047;-70
2022/09/12 04:49:06;;;;;;;11.05;9.25;;;;;;;10.72;97.99;101176.66;7398012;19;20042;-70
2022/09/12 04:51:37;;;;;;;10.95;9.07;;;;;;;10.68;97.59;101177.56;7400652;19;20021;-69
2022/09/12 04:54:07;;;;;;;13.90;9.25;;;;;;;10.67;97.79;101183.72;7400983;19;20026;-70
2022/09/12 04:56:43;;;;;;;10.25;8.02;;;;;;;10.63;97.75;101176.78;7400762;19;20401;-69
2022/09/12 04:59:13;;;;;;;12.07;8.30;;;;;;;10.59;97.81;101176.84;7399131;19;20031;-69
2022/09/12 05:01:41;;;;;;;9.13;8.20;;;;;;;10.55;97.66;101175.16;7398266;19;20019;-71
2022/09/12 05:04:12;;;;;;;15.10;12.35;;;;;;;10.52;97.73;101175.19;7398802;19;20015;-71
2022/09/12 05:06:41;;;;;;;10.68;9.15;;;;;;;10.52;97.59;101182.19;7399662;19;20086;-72
2022/09/12 05:09:13;;;;;;;10.35;9.18;;;;;;;10.48;97.49;101178.75;7395438;19;20014;-71
2022/09/12 05:11:46;;;;;;;11.95;7.97;;;;;;;10.46;97.46;101175.28;7398913;19;20018;-71
2022/09/12 05:14:14;;;;;;;10.02;8.35;;;;;;;10.44;97.31;101177.06;7401090;19;20022;-72
2022/09/12 05:16:43;;;;;;;13.88;10.00;;;;;;;10.42;97.35;101181.47;7399663;19;20066;-71
2022/09/12 05:19:13;;;;;;;9.95;8.88;;;;;;;10.40;97.42;101177.97;7399033;19;20023;-71
2022/09/12 05:21:41;;;;;;;10.77;9.68;;;;;;;10.40;97.44;101185.84;7397666;19;20018;-69
2022/09/12 05:24:12;;;;;;;10.73;9.07;;;;;;;10.38;97.50;101188.50;7395665;19;20081;-72
2022/09/12 05:26:43;;;;;;;12.05;9.90;;;;;;;10.38;97.42;101182.41;7398598;19;20078;-71
2022/09/12 05:29:12;;;;;;;15.65;11.18;;;;;;;10.37;97.53;101188.53;7400610;19;20014;-71
2022/09/12 05:31:41;;;;;;;13.18;10.75;;;;;;;10.36;97.59;101190.28;7398210;19;20022;-72
2022/09/12 05:34:10;;;;;;;11.10;9.90;;;;;;;10.37;97.63;101192.00;7397835;19;20085;-71
2022/09/12 05:36:39;;;;;;;12.32;9.43;;;;;;;10.37;97.72;101196.41;7398157;19;20492;-71
2022/09/12 05:39:08;;;;;;;10.55;9.45;;;;;;;10.38;97.78;101195.50;7398028;19;20520;-71
2022/09/12 05:41:37;;;;;;;10.20;9.20;;;;;;;10.38;97.78;101196.38;7396366;19;20074;-71
2022/09/12 05:44:09;;;;;;;11.73;10.52;;;;;;;10.40;97.76;101204.22;7398840;19;20087;-72
2022/09/12 05:46:39;;;;;;;10.80;9.60;;;;;;;10.41;97.91;101200.69;7398333;19;20544;-71
2022/09/12 05:49:10;;;;;;;11.25;9.05;;;;;;;10.43;98.01;101198.94;7396608;19;20022;-72
2022/09/12 05:51:40;;;;;;;10.52;9.50;;;;;;;10.46;98.03;101201.50;7397207;19;20078;-71
2022/09/12 05:54:11;;;;;;;10.85;9.85;;;;;;;10.48;98.17;101210.22;7399191;19;20357;-72
2022/09/12 05:56:41;;;;;;;10.90;9.40;;;;;;;10.51;98.20;101209.31;7398472;19;20090;-72
2022/09/12 05:59:14;;;;;;;11.40;10.23;;;;;;;10.52;98.49;101206.66;7398076;19;20077;-72
2022/09/12 06:01:43;;;;;;;11.30;10.10;;;;;;;10.57;98.56;101212.72;7396978;19;20038;-71
2022/09/12 06:04:12;;;;;;;12.48;11.18;;;;;;;10.62;98.50;101209.19;7397661;19;20022;-71
2022/09/12 06:06:43;;;;;;;11.93;10.73;;;;;;;10.66;99.04;101214.34;7397509;19;20039;-72
2022/09/12 06:09:13;;;;;;;14.27;12.77;;;;;;;10.73;99.39;101217.75;7398119;19;20011;-72
2022/09/12 06:11:42;;;;;;;13.43;12.02;;;;;;;10.79;99.79;101222.03;7396609;19;20030;-71
2022/09/12 06:14:15;;;;;;;15.13;13.13;;;;;;;10.84;100.00;101220.22;7397346;19;20041;-71
2022/09/12 06:16:44;;;;;;;17.90;14.30;;;;;;;10.89;100.00;101227.13;7397185;19;20074;-71
2022/09/12 06:19:16;;;;;;;14.45;12.95;;;;;;;10.96;100.00;101221.78;7396622;19;20495;-71
2022/09/12 06:21:46;;;;;;;14.07;12.57;;;;;;;11.02;100.00;101232.16;7396574;19;20081;-71
2022/09/12 06:24:14;;;;;;;15.30;13.35;;;;;;;11.07;100.00;101227.75;7395857;19;20014;-71
2022/09/12 06:26:43;;;;;;;138.57;98.22;;;;;;;11.12;100.00;101225.91;7395895;19;20078;-71
2022/09/12 06:29:15;;;;;;;61.00;44.67;;;;;;;11.19;100.00;101224.88;7395753;19;20481;-71
2022/09/12 06:31:44;;;;;;;77.47;45.20;;;;;;;11.24;100.00;101233.56;7396210;19;20025;-71
2022/09/12 06:34:14;;;;;;;64.15;44.08;;;;;;;11.30;100.00;101239.59;7395597;19;20074;-71
2022/09/12 06:36:45;;;;;;;36.80;30.17;;;;;;;11.34;100.00;101230.78;7396285;19;20074;-71
2022/09/12 06:39:15;;;;;;;34.70;30.67;;;;;;;11.39;100.00;101223.69;7394664;19;20074;-73
2022/09/12 06:41:44;;;;;;;31.98;27.20;;;;;;;11.45;100.00;101225.34;7395631;19;20018;-70
2022/09/12 06:44:18;;;;;;;26.52;23.27;;;;;;;11.49;100.00;101221.78;7394669;19;20074;-70
2022/09/12 06:46:47;;;;;;;20.23;17.83;;;;;;;11.57;100.00;101223.38;7394711;19;20565;-69
2022/09/12 06:49:16;;;;;;;18.80;15.95;;;;;;;11.64;100.00;101218.88;7396767;19;20438;-69
2022/09/12 06:51:45;;;;;;;19.30;17.15;;;;;;;11.70;100.00;101221.38;7394394;19;20386;-68
2022/09/12 06:54:15;;;;;;;17.73;14.48;;;;;;;11.76;100.00;101220.38;7394884;19;20030;-70
2022/09/12 06:56:44;;;;;;;16.98;13.93;;;;;;;11.83;100.00;101227.28;7395477;19;20021;-68
2022/09/12 06:59:15;;;;;;;15.48;13.88;;;;;;;11.90;100.00;101222.75;7396702;19;20090;-69
2022/09/12 07:01:43;;;;;;;17.80;14.90;;;;;;;11.95;100.00;101231.41;7394835;19;20042;-71
2022/09/12 07:04:13;;;;;;;15.05;13.57;;;;;;;12.00;100.00;101220.84;7395290;19;20018;-71
2022/09/12 07:06:43;;;;;;;16.92;14.45;;;;;;;12.06;100.00;101223.34;7396294;19;20010;-71
2022/09/12 07:09:15;;;;;;;13.50;12.10;;;;;;;12.12;100.00;101231.13;7396691;19;20102;-71
2022/09/12 07:11:44;;;;;;;14.18;12.68;;;;;;;12.18;100.00;101222.22;7395478;19;20025;-71
2022/09/12 07:14:16;;;;;;;13.10;11.90;;;;;;;12.26;100.00;101224.69;7392849;19;20029;-71
2022/09/12 07:16:45;;;;;;;14.25;12.73;;;;;;;12.31;100.00;101220.19;7393140;19;20032;-71
2022/09/12 07:19:14;;;;;;;13.07;11.48;;;;;;;12.38;100.00;101227.06;7395335;19;20070;-70
2022/09/12 07:21:42;;;;;;;12.85;11.65;;;;;;;12.44;100.00;101229.56;7394419;19;20545;-71
2022/09/12 07:24:11;;;;;;;13.00;10.73;;;;;;;12.50;99.84;101226.81;7395694;19;20078;-71
2022/09/12 07:26:41;;;;;;;12.32;11.07;;;;;;;12.57;99.78;101224.91;7393985;19;20006;-68
2022/09/12 07:29:18;;;;;;;10.70;9.60;;;;;;;12.64;99.49;101220.38;7395763;19;20022;-68
2022/09/12 07:31:47;;;;;;;11.52;10.18;;;;;;;12.70;99.24;101225.47;7395225;19;20019;-70
2022/09/12 07:34:16;;;;;;;11.57;10.38;;;;;;;12.77;99.10;101221.81;7392935;19;20017;-69
2022/09/12 07:36:44;;;;;;;16.33;11.88;;;;;;;12.84;99.12;101226.03;7395328;19;20010;-70
2022/09/12 07:39:13;;;;;;;10.57;9.48;;;;;;;12.90;98.85;101221.53;7394630;19;20025;-68
2022/09/12 07:41:41;;;;;;;11.55;10.25;;;;;;;12.96;98.84;101226.66;7392649;19;20082;-70
2022/09/12 07:44:10;;;;;;;10.05;9.00;;;;;;;13.02;98.50;101223.88;7392315;19;20015;-71
2022/09/12 07:46:41;;;;;;;10.82;9.75;;;;;;;13.08;98.00;101221.09;7394431;19;20083;-67
2022/09/12 07:49:09;;;;;;;8.75;7.85;;;;;;;13.15;98.05;101227.91;7393307;19;20022;-67
2022/09/12 07:51:38;;;;;;;8.13;7.32;;;;;;;13.23;97.49;101224.25;7391384;19;20082;-66
2022/09/12 07:54:09;;;;;;;8.75;7.88;;;;;;;13.31;97.60;101227.56;7393224;19;20018;-67
2022/09/12 07:56:38;;;;;;;8.90;7.45;;;;;;;13.37;97.22;101230.06;7394796;19;20024;-68
2022/09/12 07:59:06;;;;;;;6.57;5.93;;;;;;;13.46;96.52;101237.72;7395003;19;20018;-68
2022/09/12 08:01:35;;;;;;;6.93;5.70;;;;;;;13.54;95.65;101236.69;7392075;19;20015;-70
2022/09/12 08:04:06;;;;;;;7.00;6.30;;;;;;;13.61;95.37;101235.59;7394438;19;20021;-69
2022/09/12 08:06:36;;;;;;;7.80;7.00;;;;;;;13.69;95.42;101233.63;7394285;19;20027;-69
2022/09/12 08:09:10;;;;;;;6.15;5.63;;;;;;;13.74;95.24;101234.38;7394296;19;20025;-68
2022/09/12 08:11:40;;;;;;;6.50;5.90;;;;;;;13.82;94.45;101239.44;7393501;19;20025;-69
2022/09/12 08:14:09;;;;;;;9.13;5.70;;;;;;;13.88;93.89;101228.72;7392515;19;20025;-69
2022/09/12 08:16:37;;;;;;;7.57;6.00;;;;;;;13.93;92.76;101233.88;7394043;19;20078;-69
2022/09/12 08:19:08;;;;;;;6.03;4.78;;;;;;;13.98;92.84;101240.72;7393666;19;20078;-70
2022/09/12 08:21:36;;;;;;;4.40;4.00;;;;;;;14.05;92.42;101241.41;7393778;19;20082;-69
2022/09/12 08:24:07;;;;;;;4.40;4.00;;;;;;;14.11;92.13;101230.69;7393892;19;20010;-69
2022/09/12 08:26:36;;;;;;;6.18;4.70;;;;;;;14.18;91.14;101234.03;7394925;19;20026;-69
2022/09/12 08:29:05;;;;;;;4.32;3.92;;;;;;;14.25;91.44;101234.72;7393690;19;20373;-71
2022/09/12 08:31:35;;;;;;;2.95;2.75;;;;;;;14.29;89.58;101229.31;7393089;19;20030;-71
2022/09/12 08:34:05;;;;;;;2.78;2.53;;;;;;;14.37;88.99;101222.91;7391123;19;20509;-70
2022/09/12 08:36:36;;;;;;;5.32;3.00;;;;;;;14.41;88.92;101228.06;7393548;19;20074;-71
2022/09/12 08:39:07;;;;;;;4.95;2.85;;;;;;;14.49;87.88;101230.47;7393227;19;20491;-71
2022/09/12 08:41:41;;;;;;;9.52;6.60;;;;;;;14.53;88.29;101231.25;7392788;19;20034;-71
2022/09/12 08:44:42;;;;;;;3.33;2.47;;;;;;;14.62;86.64;101229.19;7393556;19;20019;-71
2022/09/12 08:47:19;;;;;;;5.47;3.80;;;;;;;14.69;87.11;101221.97;7393007;19;20476;-70
2022/09/12 08:49:57;;;;;;;3.30;2.90;;;;;;;14.76;87.33;101227.91;7390690;19;20353;-71
2022/09/12 08:52:36;;;;;;;3.22;2.47;;;;;;;14.82;84.48;101228.59;7391363;19;20014;-70
2022/09/12 08:55:08;;;;;;;1.65;1.38;;;;;;;14.89;84.03;101228.41;7390709;19;20428;-71
2022/09/12 08:57:36;;;;;;;1.42;1.25;;;;;;;14.96;83.24;101228.16;7392748;19;20030;-69
2022/09/12 09:00:07;;;;;;;1.83;1.58;;;;;;;15.05;81.10;101219.06;7392703;19;20369;-70
2022/09/12 09:03:06;;;;;;;2.17;1.65;;;;;;;15.14;78.78;101225.84;7392613;19;20015;-71
2022/09/12 09:05:47;;;;;;;2.65;1.70;;;;;;;15.20;80.20;101216.81;7399821;19;20017;-70
2022/09/12 09:08:26;;;;;;;2.13;1.25;;;;;;;15.28;80.27;101225.38;7397014;19;20390;-70
2022/09/12 09:11:01;;;;;;;3.40;1.50;;;;;;;15.35;80.06;101223.38;7400349;19;20035;-70
2022/09/12 09:16:29;;;;;;;2.67;1.33;;;;;;;15.49;78.84;101218.47;7399476;19;20098;-70
2022/09/12 09:19:00;;;;;;;1.50;1.40;;;;;;;15.56;79.09;101214.69;7396340;19;20078;-70
2022/09/12 09:21:34;;;;;;;1.73;1.30;;;;;;;15.64;78.11;101220.59;7399120;19;20019;-69
2022/09/12 09:24:07;;;;;;;;;;;;;;;15.71;76.22;101223.00;7397421;19;20019;-71
2022/09/12 09:26:45;;;;;;;4.70;1.35;;;;;;;15.78;77.36;101214.81;7399382;19;20346;-69
2022/09/12 09:29:18;;;;;;;3.00;1.98;;;;;;;15.86;77.23;101218.97;7399599;19;20029;-69
2022/09/12 09:31:50;;;;;;;1.90;1.42;;;;;;;15.93;76.80;101212.53;7397091;19;20049;-69
2022/09/12 09:34:47;;;;;;;2.50;1.33;;;;;;;15.99;74.74;101217.63;7396445;19;20021;-70
2022/09/12 09:37:20;;;;;;;1.50;1.40;;;;;;;16.05;74.04;101212.09;7398827;19;20015;-69
2022/09/12 09:40:05;;;;;;;2.97;1.50;;;;;;;16.14;74.14;101216.19;7399123;19;20015;-69
2022/09/12 09:42:43;;;;;;;1.48;1.27;;;;;;;16.24;74.61;101214.91;7396087;19;20377;-69
2022/09/12 09:45:17;;;;;;;2.53;1.40;;;;;;;16.33;72.67;101211.06;7398906;19;20037;-70
2022/09/12 09:47:46;;;;;;;;;;;;;;;16.40;70.79;101206.38;7397645;19;20028;-69
2022/09/12 09:50:18;;;;;;;2.15;1.70;;;;;;;16.48;73.50;101204.31;7396198;19;19923;-69
2022/09/12 09:52:48;;;;;;;1.30;1.17;;;;;;;16.54;72.83;101204.06;7396505;19;20501;-70
2022/09/12 09:55:24;;;;;;;2.30;1.50;;;;;;;16.57;72.26;101195.13;7398800;19;20032;-70
2022/09/12 09:57:53;;;;;;;3.15;1.70;;;;;;;16.64;72.43;101195.75;7398959;19;20019;-69
2022/09/12 10:00:29;;;;;;;3.20;1.50;;;;;;;16.69;72.19;101197.28;7400780;19;20011;-71
2022/09/12 10:03:25;;;;;;;1.63;1.10;;;;;;;16.77;69.68;101194.34;7396770;19;20020;-70
2022/09/12 10:05:56;;;;;;;1.85;1.00;;;;;;;16.85;70.63;101191.38;7398086;19;20416;-68
2022/09/12 10:08:26;;;;;;;2.30;1.20;;;;;;;16.91;70.32;101191.16;7398653;19;20074;-69
2022/09/12 10:11:01;;;;;;;2.25;1.40;;;;;;;17.00;70.35;101189.91;7397957;19;20018;-68
2022/09/12 10:13:36;;;;;;;1.80;1.35;;;;;;;17.06;70.39;101186.97;7397275;19;20022;-68
2022/09/12 10:16:07;;;;;;;2.25;1.60;;;;;;;17.13;70.13;101187.59;7398596;19;20477;-69
2022/09/12 10:18:42;;;;;;;1.95;1.30;;;;;;;17.19;69.14;101187.34;7397978;19;20021;-69
2022/09/12 10:21:21;;;;;;;1.88;1.35;;;;;;;17.28;65.71;101186.09;7399796;19;20509;-69
2022/09/12 10:23:53;;;;;;;4.45;1.38;;;;;;;17.36;66.25;101186.63;7398064;19;20035;-69
2022/09/12 10:26:24;;;;;;;2.47;1.30;;;;;;;17.48;65.83;101185.19;7395626;19;20493;-70
2022/09/12 10:28:55;;;;;;;2.70;0.98;;;;;;;17.58;66.40;101178.59;7397544;19;20029;-70
2022/09/12 10:31:30;;;;;;;3.30;1.15;;;;;;;17.71;65.60;101182.41;7395080;19;20519;-69
2022/09/12 10:34:08;;;;;;;1.25;0.93;;;;;;;17.83;65.15;101178.34;7395041;19;20014;-69
2022/09/12 10:36:39;;;;;;;1.65;0.90;;;;;;;17.94;64.82;101175.22;7395320;19;20480;-71
2022/09/12 10:39:13;;;;;;;1.42;1.13;;;;;;;18.03;64.42;101176.59;7397644;19;20020;-68
2022/09/12 10:41:44;;;;;;;3.90;1.00;;;;;;;18.08;64.42;101174.59;7396615;19;20074;-70
2022/09/12 10:44:18;;;;;;;1.67;1.23;;;;;;;18.16;64.22;101179.53;7397550;19;20066;-69
2022/09/12 10:46:47;;;;;;;1.25;1.05;;;;;;;18.26;64.46;101174.66;7396810;19;20074;-68
2022/09/12 10:49:25;;;;;;;2.53;1.10;;;;;;;18.34;63.45;101170.72;7397920;19;20330;-67
2022/09/12 10:51:55;;;;;;;2.08;0.98;;;;;;;18.45;63.72;101172.88;7395997;19;20021;-68
2022/09/12 10:54:27;;;;;;;1.88;0.90;;;;;;;18.57;63.67;101176.72;7395276;19;20385;-68
2022/09/12 10:57:34;;;;;;;2.40;1.17;;;;;;;18.71;63.36;101176.03;7395074;19;20031;-67
2022/09/12 11:00:13;;;;;;;2.97;1.10;;;;;;;18.84;62.84;101173.63;7396774;19;20489;-67
2022/09/12 11:03:03;;;;;;;1.70;1.00;;;;;;;18.93;62.14;101173.22;7394518;19;20378;-67
2022/09/12 11:05:44;;;;;;;4.05;2.63;;;;;;;18.98;61.76;101171.19;7394850;19;20178;-70
2022/09/12 11:08:23;;;;;;;3.30;1.63;;;;;;;19.09;62.31;101170.63;7394676;19;20081;-69
2022/09/12 11:11:01;;;;;;;2.22;1.30;;;;;;;19.19;61.27;101179.00;7395794;19;20024;-70
2022/09/12 11:13:52;;;;;;;1.27;1.00;;;;;;;19.27;58.77;101168.84;7392888;19;20014;-68
2022/09/12 11:16:32;;;;;;;1.90;1.20;;;;;;;19.34;59.58;101166.72;7392204;19;20033;-69
2022/09/12 11:19:20;;;;;;;5.53;3.80;;;;;;;19.42;59.65;101164.50;7396229;19;20018;-70
2022/09/12 11:22:07;;;;;;;1.35;1.17;;;;;;;19.52;59.23;101168.44;7392392;19;20014;-68
2022/09/12 11:25:07;;;;;;;2.03;1.15;;;;;;;19.56;57.05;101162.94;7394876;19;20067;-71
2022/09/12 11:27:51;;;;;;;1.65;1.02;;;;;;;19.60;57.54;101164.47;7395561;19;20087;-68
2022/09/12 11:30:22;;;;;;;3.85;2.05;;;;;;;19.62;56.87;101160.81;7393677;19;20415;-72
2022/09/12 11:33:18;;;;;;;1.30;1.15;;;;;;;19.65;55.24;101159.78;7393446;19;20074;-68
2022/09/12 11:35:51;;;;;;;1.50;1.20;;;;;;;19.68;57.98;101149.81;7392009;19;20082;-67
2022/09/12 11:38:47;;;;;;;2.67;1.30;;;;;;;19.73;55.44;101149.59;7393410;19;20074;-67
2022/09/12 11:41:22;;;;;;;1.67;1.00;;;;;;;19.79;57.58;101149.25;7393788;19;20105;-68
2022/09/12 11:43:56;;;;;;;5.22;1.20;;;;;;;19.84;57.29;101141.03;7395263;19;20035;-67
2022/09/12 11:46:33;;;;;;;2.38;1.60;;;;;;;19.88;57.25;101133.75;7394838;19;20014;-67
2022/09/12 11:49:07;;;;;;;2.88;1.20;;;;;;;19.91;57.32;101134.44;7394697;19;20122;-68
2022/09/12 11:51:54;;;;;;;3.53;1.17;;;;;;;19.97;57.37;101135.94;7393323;19;20015;-68